sensor_id;sensor_type;location;lat;lon;timestamp;pressure;altitude;pressure_sealevel;temperature;humidity
31096;BME280;17749;51.962;8.560;2023-05-10T05:02:08;99267.25;;;13.45;100.00
31096;BME280;17749;51.962;8.560;2023-05-10T05:04:34;99265.94;;;13.38;100.00
31096;BME280;17749;51.962;8.560;2023-05-10T05:07:01;99272.91;;;13.41;100.00
31096;BME280;17749;51.962;8.560;2023-05-10T05:09:28;99279.09;;;13.41;100.00
31096;BME280;17749;51.962;8.560;2023-05-10T05:11:55;99279.31;;;13.38;100.00
31096;BME280;17749;51.962;8.560;2023-05-10T05:14:22;99282.94;;;13.37;100.00
31096;BME280;17749;51.962;8.560;2023-05-10T05:16:52;99287.13;;;13.41;100.00
31096;BME280;17749;51.962;8.560;2023-05-10T05:19:19;99291.41;;;13.44;100.00
31096;BME280;17749;51.962;8.560;2023-05-10T05:21:46;99292.47;;;13.41;100.00
31096;BME280;17749;51.962;8.560;2023-05-10T05:24:13;99300.03;;;13.34;100.00
31096;BME280;17749;51.962;8.560;2023-05-10T05:26:40;99296.59;;;13.32;100.00
31096;BME280;17749;51.962;8.560;2023-05-10T05:29:07;99299.19;;;13.34;100.00
31096;BME280;17749;51.962;8.560;2023-05-10T05:31:33;99305.47;;;13.33;100.00
31096;BME280;17749;51.962;8.560;2023-05-10T05:34:00;99302.53;;;13.37;100.00
31096;BME280;17749;51.962;8.560;2023-05-10T05:36:27;99308.84;;;13.36;100.00
31096;BME280;17749;51.962;8.560;2023-05-10T05:38:54;99316.53;;;13.41;100.00
31096;BME280;17749;51.962;8.560;2023-05-10T05:41:21;99322.66;;;13.43;100.00
31096;BME280;17749;51.962;8.560;2023-05-10T05:43:49;99319.41;;;13.38;100.00
31096;BME280;17749;51.962;8.560;2023-05-10T05:46:16;99324.97;;;13.35;100.00
31096;BME280;17749;51.962;8.560;2023-05-10T05:48:43;99319.53;;;13.36;100.00
31096;BME280;17749;51.962;8.560;2023-05-10T05:51:10;99324.88;;;13.36;100.00
31096;BME280;17749;51.962;8.560;2023-05-10T05:53:37;99329.19;;;13.39;100.00
31096;BME280;17749;51.962;8.560;2023-05-10T05:56:04;99330.88;;;13.40;100.00
31096;BME280;17749;51.962;8.560;2023-05-10T05:58:31;99337.94;;;13.41;100.00
31096;BME280;17749;51.962;8.560;2023-05-10T06:00:57;99337.94;;;13.41;100.00
31096;BME280;17749;51.962;8.560;2023-05-10T06:03:24;99347.78;;;13.41;100.00
31096;BME280;17749;51.962;8.560;2023-05-10T06:05:52;99348.06;;;13.36;100.00
31096;BME280;17749;51.962;8.560;2023-05-10T06:08:18;99361.06;;;13.28;100.00
31096;BME280;17749;51.962;8.560;2023-05-10T06:10:45;99361.34;;;13.23;100.00
31096;BME280;17749;51.962;8.560;2023-05-10T06:13:12;99361.50;;;13.20;100.00
31096;BME280;17749;51.962;8.560;2023-05-10T06:15:39;99369.94;;;13.14;100.00
31096;BME280;17749;51.962;8.560;2023-05-10T06:18:06;99377.28;;;13.10;100.00
31096;BME280;17749;51.962;8.560;2023-05-10T06:20:33;99374.31;;;13.15;100.00
31096;BME280;17749;51.962;8.560;2023-05-10T06:23:00;99376.69;;;13.20;100.00
31096;BME280;17749;51.962;8.560;2023-05-10T06:25:27;99378.44;;;13.21;100.00
31096;BME280;17749;51.962;8.560;2023-05-10T06:27:54;99378.94;;;13.27;100.00
31096;BME280;17749;51.962;8.560;2023-05-10T06:30:25;99381.13;;;13.35;100.00
31096;BME280;17749;51.962;8.560;2023-05-10T06:32:55;99384.00;;;13.32;100.00
31096;BME280;17749;51.962;8.560;2023-05-10T06:35:23;99388.19;;;13.36;100.00
31096;BME280;17749;51.962;8.560;2023-05-10T06:37:50;99382.47;;;13.42;100.00
31096;BME280;17749;51.962;8.560;2023-05-10T06:40:17;99394.00;;;13.43;100.00
31096;BME280;17749;51.962;8.560;2023-05-10T06:42:45;99397.44;;;13.45;100.00
31096;BME280;17749;51.962;8.560;2023-05-10T06:45:14;99391.06;;;13.47;100.00
31096;BME280;17749;51.962;8.560;2023-05-10T06:47:42;99409.56;;;13.50;100.00
31096;BME280;17749;51.962;8.560;2023-05-10T06:50:09;99398.03;;;13.50;100.00
31096;BME280;17749;51.962;8.560;2023-05-10T06:52:38;99406.03;;;13.50;100.00
31096;BME280;17749;51.962;8.560;2023-05-10T06:55:05;99413.09;;;13.51;100.00
31096;BME280;17749;51.962;8.560;2023-05-10T06:57:32;99406.25;;;13.47;100.00
31096;BME280;17749;51.962;8.560;2023-05-10T06:59:59;99410.53;;;13.49;100.00
31096;BME280;17749;51.962;8.560;2023-05-10T07:02:26;99419.31;;;13.51;100.00
31096;BME280;17749;51.962;8.560;2023-05-10T07:04:55;99413.03;;;13.52;100.00
31096;BME280;17749;51.962;8.560;2023-05-10T07:07:22;99419.88;;;13.56;100.00
31096;BME280;17749;51.962;8.560;2023-05-10T07:09:49;99418.94;;;13.57;100.00
31096;BME280;17749;51.962;8.560;2023-05-10T07:12:16;99424.44;;;13.54;100.00
31096;BME280;17749;51.962;8.560;2023-05-10T07:14:43;99419.09;;;13.54;100.00
31096;BME280;17749;51.962;8.560;2023-05-10T07:17:10;99422.66;;;13.55;100.00
31096;BME280;17749;51.962;8.560;2023-05-10T07:19:37;99424.28;;;13.57;100.00
31096;BME280;17749;51.962;8.560;2023-05-10T07:22:04;99430.88;;;13.52;100.00
31096;BME280;17749;51.962;8.560;2023-05-10T07:24:31;99426.59;;;13.49;100.00
31096;BME280;17749;51.962;8.560;2023-05-10T07:26:58;99424.44;;;13.54;100.00
31096;BME280;17749;51.962;8.560;2023-05-10T07:29:25;99423.88;;;13.64;100.00
31096;BME280;17749;51.962;8.560;2023-05-10T07:31:52;99428.28;;;13.65;100.00
31096;BME280;17749;51.962;8.560;2023-05-10T07:34:22;99430.78;;;13.68;100.00
31096;BME280;17749;51.962;8.560;2023-05-10T07:36:49;99428.94;;;13.68;100.00
31096;BME280;17749;51.962;8.560;2023-05-10T07:39:16;99426.94;;;13.72;100.00
31096;BME280;17749;51.962;8.560;2023-05-10T07:41:53;99433.81;;;13.76;100.00
31096;BME280;17749;51.962;8.560;2023-05-10T07:44:20;99435.31;;;13.80;100.00
31096;BME280;17749;51.962;8.560;2023-05-10T07:46:47;99432.84;;;13.91;100.00
31096;BME280;17749;51.962;8.560;2023-05-10T07:49:14;99430.16;;;13.91;100.00
31096;BME280;17749;51.962;8.560;2023-05-10T07:51:41;99434.34;;;13.95;100.00
31096;BME280;17749;51.962;8.560;2023-05-10T07:54:09;99436.25;;;13.93;100.00
31096;BME280;17749;51.962;8.560;2023-05-10T07:56:35;99439.13;;;13.90;100.00
31096;BME280;17749;51.962;8.560;2023-05-10T07:59:03;99440.25;;;14.00;100.00
31096;BME280;17749;51.962;8.560;2023-05-10T08:01:32;99433.75;;;14.05;100.00
31096;BME280;17749;51.962;8.560;2023-05-10T08:03:59;99437.72;;;14.12;100.00
31096;BME280;17749;51.962;8.560;2023-05-10T08:06:27;99442.16;;;14.13;100.00
31096;BME280;17749;51.962;8.560;2023-05-10T08:08:55;99437.91;;;14.23;100.00
31096;BME280;17749;51.962;8.560;2023-05-10T08:11:22;99445.22;;;14.34;100.00
31096;BME280;17749;51.962;8.560;2023-05-10T08:13:50;99448.47;;;14.39;100.00
31096;BME280;17749;51.962;8.560;2023-05-10T08:16:17;99448.34;;;14.55;100.00
31096;BME280;17749;51.962;8.560;2023-05-10T08:18:44;99455.00;;;14.75;100.00
31096;BME280;17749;51.962;8.560;2023-05-10T08:21:14;99456.88;;;14.87;100.00
31096;BME280;17749;51.962;8.560;2023-05-10T08:23:41;99449.91;;;14.84;100.00
31096;BME280;17749;51.962;8.560;2023-05-10T08:26:09;99446.06;;;14.88;100.00
31096;BME280;17749;51.962;8.560;2023-05-10T08:28:37;99449.47;;;15.03;100.00
31096;BME280;17749;51.962;8.560;2023-05-10T08:31:04;99454.47;;;15.22;100.00
31096;BME280;17749;51.962;8.560;2023-05-10T08:33:32;99460.69;;;15.36;100.00
31096;BME280;17749;51.962;8.560;2023-05-10T08:35:59;99457.22;;;15.59;100.00
31096;BME280;17749;51.962;8.560;2023-05-10T08:38:26;99449.81;;;15.75;100.00
31096;BME280;17749;51.962;8.560;2023-05-10T08:40:54;99459.16;;;15.83;100.00
31096;BME280;17749;51.962;8.560;2023-05-10T08:43:26;99461.16;;;15.92;100.00
31096;BME280;17749;51.962;8.560;2023-05-10T08:45:55;99446.34;;;15.99;100.00
31096;BME280;17749;51.962;8.560;2023-05-10T08:48:24;99452.09;;;16.06;100.00
31096;BME280;17749;51.962;8.560;2023-05-10T08:50:53;99464.38;;;15.97;100.00
31096;BME280;17749;51.962;8.560;2023-05-10T08:53:24;99468.81;;;15.85;100.00
31096;BME280;17749;51.962;8.560;2023-05-10T08:55:53;99474.22;;;15.72;100.00
31096;BME280;17749;51.962;8.560;2023-05-10T08:58:20;99478.25;;;15.65;100.00
31096;BME280;17749;51.962;8.560;2023-05-10T09:00:49;99472.47;;;15.46;100.00
31096;BME280;17749;51.962;8.560;2023-05-10T09:03:17;99485.47;;;15.39;100.00
31096;BME280;17749;51.962;8.560;2023-05-10T09:05:45;99480.41;;;15.34;100.00
31096;BME280;17749;51.962;8.560;2023-05-10T09:08:13;99484.59;;;15.39;100.00
31096;BME280;17749;51.962;8.560;2023-05-10T09:10:43;99492.97;;;15.47;100.00
31096;BME280;17749;51.962;8.560;2023-05-10T09:13:10;99487.06;;;15.54;100.00
31096;BME280;17749;51.962;8.560;2023-05-10T09:15:38;99490.91;;;15.63;100.00
31096;BME280;17749;51.962;8.560;2023-05-10T09:18:05;99492.00;;;15.73;100.00
31096;BME280;17749;51.962;8.560;2023-05-10T09:20:32;99497.78;;;15.67;100.00
31096;BME280;17749;51.962;8.560;2023-05-10T09:22:59;99495.69;;;15.72;100.00
31096;BME280;17749;51.962;8.560;2023-05-10T09:25:26;99496.53;;;15.86;100.00
31096;BME280;17749;51.962;8.560;2023-05-10T09:27:54;99502.28;;;16.05;100.00
31096;BME280;17749;51.962;8.560;2023-05-10T09:30:25;99496.31;;;16.26;100.00
31096;BME280;17749;51.962;8.560;2023-05-10T09:32:53;99505.97;;;16.28;100.00
31096;BME280;17749;51.962;8.560;2023-05-10T09:35:23;99509.75;;;16.26;100.00
31096;BME280;17749;51.962;8.560;2023-05-10T09:37:55;99505.19;;;16.39;100.00
31096;BME280;17749;51.962;8.560;2023-05-10T09:40:25;99516.00;;;16.50;100.00
31096;BME280;17749;51.962;8.560;2023-05-10T09:42:53;99506.41;;;16.59;100.00
31096;BME280;17749;51.962;8.560;2023-05-10T09:45:22;99509.66;;;16.75;100.00
31096;BME280;17749;51.962;8.560;2023-05-10T09:47:50;99511.06;;;16.81;100.00
31096;BME280;17749;51.962;8.560;2023-05-10T09:50:17;99512.56;;;16.85;100.00
31096;BME280;17749;51.962;8.560;2023-05-10T09:52:56;99520.88;;;16.93;100.00
31096;BME280;17749;51.962;8.560;2023-05-10T09:58:02;99509.28;;;17.39;100.00
31096;BME280;17749;51.962;8.560;2023-05-10T10:00:38;99509.69;;;17.68;100.00
31096;BME280;17749;51.962;8.560;2023-05-10T10:03:06;99501.78;;;18.01;100.00
31096;BME280;17749;51.962;8.560;2023-05-10T10:05:35;99498.66;;;18.28;100.00
31096;BME280;17749;51.962;8.560;2023-05-10T10:08:04;99505.63;;;18.30;100.00
31096;BME280;17749;51.962;8.560;2023-05-10T10:10:32;99510.56;;;18.14;100.00
31096;BME280;17749;51.962;8.560;2023-05-10T10:13:00;99503.47;;;18.02;100.00
31096;BME280;17749;51.962;8.560;2023-05-10T10:15:26;99505.69;;;17.85;100.00
31096;BME280;17749;51.962;8.560;2023-05-10T10:17:54;99506.75;;;17.71;100.00
31096;BME280;17749;51.962;8.560;2023-05-10T10:20:22;99499.69;;;17.93;100.00
31096;BME280;17749;51.962;8.560;2023-05-10T10:22:49;99500.28;;;18.19;100.00
31096;BME280;17749;51.962;8.560;2023-05-10T10:25:17;99492.13;;;18.53;100.00
31096;BME280;17749;51.962;8.560;2023-05-10T10:27:56;99499.44;;;18.62;100.00
31096;BME280;17749;51.962;8.560;2023-05-10T10:35:55;99479.34;;;19.19;100.00
31096;BME280;17749;51.962;8.560;2023-05-10T10:38:24;99480.25;;;19.30;100.00
31096;BME280;17749;51.962;8.560;2023-05-10T10:41:02;99483.53;;;19.54;100.00
31096;BME280;17749;51.962;8.560;2023-05-10T10:43:29;99480.69;;;19.77;100.00
31096;BME280;17749;51.962;8.560;2023-05-10T10:46:16;99480.06;;;19.94;100.00
31096;BME280;17749;51.962;8.560;2023-05-10T10:48:48;99478.66;;;20.09;100.00
31096;BME280;17749;51.962;8.560;2023-05-10T10:51:15;99481.03;;;20.33;100.00
31096;BME280;17749;51.962;8.560;2023-05-10T10:53:43;99478.09;;;20.66;100.00
31096;BME280;17749;51.962;8.560;2023-05-10T10:56:12;99477.97;;;20.96;100.00
31096;BME280;17749;51.962;8.560;2023-05-10T10:58:40;99489.63;;;21.26;100.00
31096;BME280;17749;51.962;8.560;2023-05-10T11:03:38;99488.59;;;21.27;100.00
31096;BME280;17749;51.962;8.560;2023-05-10T11:06:05;99488.47;;;21.29;100.00
31096;BME280;17749;51.962;8.560;2023-05-10T11:08:33;99485.78;;;21.38;100.00
31096;BME280;17749;51.962;8.560;2023-05-10T11:11:05;99486.31;;;21.61;100.00
31096;BME280;17749;51.962;8.560;2023-05-10T11:13:44;99483.56;;;21.71;100.00
31096;BME280;17749;51.962;8.560;2023-05-10T11:16:23;99480.41;;;21.76;100.00
31096;BME280;17749;51.962;8.560;2023-05-10T11:18:57;99484.53;;;21.80;100.00
31096;BME280;17749;51.962;8.560;2023-05-10T11:21:25;99488.31;;;21.97;100.00
31096;BME280;17749;51.962;8.560;2023-05-10T11:23:57;99486.81;;;22.12;100.00
31096;BME280;17749;51.962;8.560;2023-05-10T11:26:32;99485.50;;;22.16;100.00
31096;BME280;17749;51.962;8.560;2023-05-10T11:29:00;99478.66;;;22.40;100.00
31096;BME280;17749;51.962;8.560;2023-05-10T11:31:28;99478.94;;;22.64;100.00
31096;BME280;17749;51.962;8.560;2023-05-10T11:33:57;99476.75;;;22.50;100.00
31096;BME280;17749;51.962;8.560;2023-05-10T11:36:32;99476.84;;;22.58;100.00
31096;BME280;17749;51.962;8.560;2023-05-10T11:38:59;99484.16;;;22.75;100.00
31096;BME280;17749;51.962;8.560;2023-05-10T11:41:28;99480.91;;;22.90;100.00
31096;BME280;17749;51.962;8.560;2023-05-10T11:43:55;99485.09;;;23.02;100.00
31096;BME280;17749;51.962;8.560;2023-05-10T11:46:25;99489.25;;;22.79;100.00
31096;BME280;17749;51.962;8.560;2023-05-10T11:49:00;99486.75;;;22.49;100.00
31096;BME280;17749;51.962;8.560;2023-05-10T11:51:33;99499.28;;;22.33;100.00
31096;BME280;17749;51.962;8.560;2023-05-10T11:54:01;99506.78;;;22.11;100.00
31096;BME280;17749;51.962;8.560;2023-05-10T11:56:32;99508.50;;;22.22;100.00
31096;BME280;17749;51.962;8.560;2023-05-10T11:59:00;99516.03;;;22.18;100.00
31096;BME280;17749;51.962;8.560;2023-05-10T12:01:28;99509.97;;;22.06;100.00
31096;BME280;17749;51.962;8.560;2023-05-10T12:03:57;99519.72;;;21.89;100.00
31096;BME280;17749;51.962;8.560;2023-05-10T12:06:29;99529.50;;;21.63;100.00
31096;BME280;17749;51.962;8.560;2023-05-10T12:08:58;99535.25;;;21.01;100.00
31096;BME280;17749;51.962;8.560;2023-05-10T12:11:26;99534.63;;;20.69;100.00
31096;BME280;17749;51.962;8.560;2023-05-10T12:13:55;99543.66;;;20.48;100.00
31096;BME280;17749;51.962;8.560;2023-05-10T12:16:24;99552.81;;;20.07;100.00
31096;BME280;17749;51.962;8.560;2023-05-10T12:18:53;99550.56;;;19.91;100.00
31096;BME280;17749;51.962;8.560;2023-05-10T12:21:21;99549.13;;;19.87;100.00
31096;BME280;17749;51.962;8.560;2023-05-10T12:23:50;99553.63;;;19.77;100.00
31096;BME280;17749;51.962;8.560;2023-05-10T12:26:21;99553.25;;;19.91;100.00
31096;BME280;17749;51.962;8.560;2023-05-10T12:28:48;99554.22;;;19.80;100.00
31096;BME280;17749;51.962;8.560;2023-05-10T12:31:15;99553.63;;;19.77;100.00
31096;BME280;17749;51.962;8.560;2023-05-10T12:33:43;99558.13;;;19.66;100.00
31096;BME280;17749;51.962;8.560;2023-05-10T12:36:12;99556.59;;;19.53;100.00
31096;BME280;17749;51.962;8.560;2023-05-10T12:38:41;99555.97;;;19.49;100.00
31096;BME280;17749;51.962;8.560;2023-05-10T12:41:12;99552.31;;;19.50;100.00
31096;BME280;17749;51.962;8.560;2023-05-10T12:43:39;99558.28;;;19.33;100.00
31096;BME280;17749;51.962;8.560;2023-05-10T12:46:14;99561.50;;;19.26;100.00
31096;BME280;17749;51.962;8.560;2023-05-10T12:48:42;99553.72;;;19.12;100.00
31096;BME280;17749;51.962;8.560;2023-05-10T12:51:09;99561.16;;;18.88;100.00
31096;BME280;17749;51.962;8.560;2023-05-10T12:53:39;99561.81;;;18.80;100.00
31096;BME280;17749;51.962;8.560;2023-05-10T12:56:10;99573.94;;;18.74;100.00
31096;BME280;17749;51.962;8.560;2023-05-10T12:58:38;99567.19;;;18.80;100.00
31096;BME280;17749;51.962;8.560;2023-05-10T13:01:05;99562.38;;;18.95;100.00
31096;BME280;17749;51.962;8.560;2023-05-10T13:03:32;99560.38;;;19.08;100.00
31096;BME280;17749;51.962;8.560;2023-05-10T13:05:59;99562.28;;;19.17;100.00
31096;BME280;17749;51.962;8.560;2023-05-10T13:08:26;99568.59;;;19.27;100.00
31096;BME280;17749;51.962;8.560;2023-05-10T13:10:53;99571.28;;;19.39;100.00
31096;BME280;17749;51.962;8.560;2023-05-10T13:13:20;99566.38;;;19.33;100.00
31096;BME280;17749;51.962;8.560;2023-05-10T13:15:47;99575.97;;;19.25;100.00
31096;BME280;17749;51.962;8.560;2023-05-10T13:18:14;99582.09;;;19.27;100.00
31096;BME280;17749;51.962;8.560;2023-05-10T13:20:41;99580.19;;;19.18;100.00
31096;BME280;17749;51.962;8.560;2023-05-10T13:23:10;99578.66;;;19.25;100.00
31096;BME280;17749;51.962;8.560;2023-05-10T13:25:37;99573.75;;;19.31;100.00
31096;BME280;17749;51.962;8.560;2023-05-10T13:28:04;99578.25;;;19.20;100.00
31096;BME280;17749;51.962;8.560;2023-05-10T13:30:31;99584.47;;;19.21;100.00
31096;BME280;17749;51.962;8.560;2023-05-10T13:32:58;99579.53;;;19.05;100.00
31096;BME280;17749;51.962;8.560;2023-05-10T13:35:24;99584.13;;;18.82;100.00
31096;BME280;17749;51.962;8.560;2023-05-10T13:37:51;99592.59;;;18.66;100.00
31096;BME280;17749;51.962;8.560;2023-05-10T13:40:20;99614.66;;;18.49;100.00
31096;BME280;17749;51.962;8.560;2023-05-10T13:42:47;99618.22;;;18.38;100.00
31096;BME280;17749;51.962;8.560;2023-05-10T13:45:13;99619.56;;;18.10;100.00
31096;BME280;17749;51.962;8.560;2023-05-10T13:47:41;99619.66;;;17.97;100.00
31096;BME280;17749;51.962;8.560;2023-05-10T13:50:08;99617.59;;;17.89;100.00
31096;BME280;17749;51.962;8.560;2023-05-10T13:52:35;99619.78;;;17.84;100.00
31096;BME280;17749;51.962;8.560;2023-05-10T13:55:02;99619.78;;;17.84;100.00
31096;BME280;17749;51.962;8.560;2023-05-10T13:57:29;99625.19;;;17.84;100.00
31096;BME280;17749;51.962;8.560;2023-05-10T13:59:57;99616.34;;;17.82;100.00
31096;BME280;17749;51.962;8.560;2023-05-10T14:02:24;99622.00;;;17.79;100.00
31096;BME280;17749;51.962;8.560;2023-05-10T14:04:51;99622.16;;;17.65;100.00
31096;BME280;17749;51.962;8.560;2023-05-10T14:07:18;99627.28;;;17.57;100.00
31096;BME280;17749;51.962;8.560;2023-05-10T14:09:45;99619.88;;;17.47;100.00
31096;BME280;17749;51.962;8.560;2023-05-10T14:12:12;99618.75;;;17.39;100.00
31096;BME280;17749;51.962;8.560;2023-05-10T14:14:41;99610.66;;;17.27;100.00
31096;BME280;17749;51.962;8.560;2023-05-10T14:17:08;99615.75;;;17.19;100.00
31096;BME280;17749;51.962;8.560;2023-05-10T14:19:37;99607.28;;;17.13;100.00
31096;BME280;17749;51.962;8.560;2023-05-10T14:22:05;99603.22;;;17.07;100.00
31096;BME280;17749;51.962;8.560;2023-05-10T14:24:32;99615.31;;;17.01;100.00
31096;BME280;17749;51.962;8.560;2023-05-10T14:26:59;99625.44;;;16.98;100.00
31096;BME280;17749;51.962;8.560;2023-05-10T14:29:26;99622.84;;;16.96;100.00
31096;BME280;17749;51.962;8.560;2023-05-10T14:31:54;99611.69;;;16.90;100.00
31096;BME280;17749;51.962;8.560;2023-05-10T14:34:21;99616.97;;;16.91;100.00
31096;BME280;17749;51.962;8.560;2023-05-10T14:36:48;99608.28;;;16.88;100.00
31096;BME280;17749;51.962;8.560;2023-05-10T14:39:15;99608.28;;;16.75;100.00
31096;BME280;17749;51.962;8.560;2023-05-10T14:41:42;99612.47;;;16.79;100.00
31096;BME280;17749;51.962;8.560;2023-05-10T14:44:11;99604.81;;;16.85;100.00
31096;BME280;17749;51.962;8.560;2023-05-10T14:46:38;99611.28;;;16.83;100.00
31096;BME280;17749;51.962;8.560;2023-05-10T14:49:06;99597.28;;;16.91;100.00
31096;BME280;17749;51.962;8.560;2023-05-10T14:51:33;99601.44;;;16.95;100.00
31096;BME280;17749;51.962;8.560;2023-05-10T14:53:59;99598.06;;;17.04;100.00
31096;BME280;17749;51.962;8.560;2023-05-10T14:56:27;99600.63;;;17.05;100.00
31096;BME280;17749;51.962;8.560;2023-05-10T14:58:54;99599.91;;;17.03;100.00
31096;BME280;17749;51.962;8.560;2023-05-10T15:01:22;99601.84;;;17.01;100.00
31096;BME280;17749;51.962;8.560;2023-05-10T15:03:49;99597.47;;;17.00;100.00
31096;BME280;17749;51.962;8.560;2023-05-10T15:06:23;99603.47;;;17.04;100.00
31096;BME280;17749;51.962;8.560;2023-05-10T15:08:50;99606.16;;;17.04;100.00
31096;BME280;17749;51.962;8.560;2023-05-10T15:11:17;99607.28;;;17.13;100.00
31096;BME280;17749;51.962;8.560;2023-05-10T15:13:44;99615.06;;;17.04;100.00
31096;BME280;17749;51.962;8.560;2023-05-10T15:16:10;99608.59;;;17.07;100.00
31096;BME280;17749;51.962;8.560;2023-05-10T15:18:37;99614.59;;;17.11;100.00
31096;BME280;17749;51.962;8.560;2023-05-10T15:21:05;99614.59;;;17.11;100.00
31096;BME280;17749;51.962;8.560;2023-05-10T15:23:31;99624.91;;;16.93;100.00
31096;BME280;17749;51.962;8.560;2023-05-10T15:26:00;99629.59;;;16.78;100.00
31096;BME280;17749;51.962;8.560;2023-05-10T15:28:26;99630.03;;;16.72;100.00
31096;BME280;17749;51.962;8.560;2023-05-10T15:30:53;99631.53;;;16.63;100.00
31096;BME280;17749;51.962;8.560;2023-05-10T15:33:21;99625.53;;;16.59;100.00
31096;BME280;17749;51.962;8.560;2023-05-10T15:35:48;99631.34;;;16.53;100.00
31096;BME280;17749;51.962;8.560;2023-05-10T15:38:15;99643.59;;;16.44;100.00
31096;BME280;17749;51.962;8.560;2023-05-10T15:40:41;99628.34;;;16.45;100.00
31096;BME280;17749;51.962;8.560;2023-05-10T15:43:08;99621.03;;;16.47;100.00
31096;BME280;17749;51.962;8.560;2023-05-10T15:45:35;99633.06;;;16.54;100.00
31096;BME280;17749;51.962;8.560;2023-05-10T15:48:03;99630.28;;;16.56;100.00
31096;BME280;17749;51.962;8.560;2023-05-10T15:50:30;99632.84;;;16.57;100.00
31096;BME280;17749;51.962;8.560;2023-05-10T15:52:57;99643.81;;;16.54;100.00
31096;BME280;17749;51.962;8.560;2023-05-10T15:55:24;99646.94;;;16.48;100.00
31096;BME280;17749;51.962;8.560;2023-05-10T15:57:51;99655.97;;;16.47;100.00
31096;BME280;17749;51.962;8.560;2023-05-10T16:00:18;99661.88;;;16.39;100.00
31096;BME280;17749;51.962;8.560;2023-05-10T16:02:46;99665.56;;;16.26;100.00
31096;BME280;17749;51.962;8.560;2023-05-10T16:05:12;99680.38;;;16.06;100.00
31096;BME280;17749;51.962;8.560;2023-05-10T16:07:40;99693.94;;;16.04;100.00
31096;BME280;17749;51.962;8.560;2023-05-10T16:10:09;99699.31;;;16.04;100.00
31096;BME280;17749;51.962;8.560;2023-05-10T16:12:37;99694.16;;;16.01;100.00
31096;BME280;17749;51.962;8.560;2023-05-10T16:15:04;99699.91;;;15.95;100.00
31096;BME280;17749;51.962;8.560;2023-05-10T16:17:31;99701.00;;;15.92;100.00
31096;BME280;17749;51.962;8.560;2023-05-10T16:19:59;99701.72;;;15.82;100.00
31096;BME280;17749;51.962;8.560;2023-05-10T16:22:26;99702.63;;;15.68;100.00
31096;BME280;17749;51.962;8.560;2023-05-10T16:24:55;99699.78;;;15.44;100.00
31096;BME280;17749;51.962;8.560;2023-05-10T16:27:22;99704.63;;;15.24;100.00
31096;BME280;17749;51.962;8.560;2023-05-10T16:29:49;99705.47;;;15.12;100.00
31096;BME280;17749;51.962;8.560;2023-05-10T16:32:16;99717.38;;;14.94;100.00
31096;BME280;17749;51.962;8.560;2023-05-10T16:34:43;99717.09;;;14.84;100.00
31096;BME280;17749;51.962;8.560;2023-05-10T16:37:10;99715.63;;;14.93;100.00
31096;BME280;17749;51.962;8.560;2023-05-10T16:39:37;99711.59;;;15.00;100.00
31096;BME280;17749;51.962;8.560;2023-05-10T16:42:04;99716.56;;;15.06;100.00
31096;BME280;17749;51.962;8.560;2023-05-10T16:44:31;99712.72;;;15.10;100.00
31096;BME280;17749;51.962;8.560;2023-05-10T16:46:58;99717.97;;;15.11;100.00
31096;BME280;17749;51.962;8.560;2023-05-10T16:49:25;99722.69;;;15.08;100.00
31096;BME280;17749;51.962;8.560;2023-05-10T16:51:52;99714.94;;;15.03;100.00
31096;BME280;17749;51.962;8.560;2023-05-10T16:54:19;99731.53;;;14.96;100.00
31096;BME280;17749;51.962;8.560;2023-05-10T16:56:47;99731.34;;;14.84;100.00
31096;BME280;17749;51.962;8.560;2023-05-10T16:59:14;99734.22;;;14.81;100.00
31096;BME280;17749;51.962;8.560;2023-05-10T17:01:42;99733.19;;;14.69;100.00
31096;BME280;17749;51.962;8.560;2023-05-10T17:04:09;99731.16;;;14.59;100.00
31096;BME280;17749;51.962;8.560;2023-05-10T17:06:36;99733.84;;;14.59;100.00
31096;BME280;17749;51.962;8.560;2023-05-10T17:09:03;99737.59;;;14.56;100.00
31096;BME280;17749;51.962;8.560;2023-05-10T17:11:31;99733.44;;;14.51;100.00
31096;BME280;17749;51.962;8.560;2023-05-10T17:13:59;99736.22;;;14.49;100.00
31096;BME280;17749;51.962;8.560;2023-05-10T17:16:27;99732.41;;;14.53;100.00
31096;BME280;17749;51.962;8.560;2023-05-10T17:18:54;99733.97;;;14.57;100.00
31096;BME280;17749;51.962;8.560;2023-05-10T17:21:22;99738.34;;;14.44;100.00
31096;BME280;17749;51.962;8.560;2023-05-10T17:23:49;99745.31;;;14.46;100.00
31096;BME280;17749;51.962;8.560;2023-05-10T17:26:16;99730.09;;;14.47;100.00
31096;BME280;17749;51.962;8.560;2023-05-10T17:28:42;99740.03;;;14.45;100.00
31096;BME280;17749;51.962;8.560;2023-05-10T17:31:09;99730.50;;;14.41;100.00
31096;BME280;17749;51.962;8.560;2023-05-10T17:33:37;99733.44;;;14.36;100.00
31096;BME280;17749;51.962;8.560;2023-05-10T17:36:04;99728.66;;;14.27;100.00
31096;BME280;17749;51.962;8.560;2023-05-10T17:38:31;99734.19;;;14.24;100.00
31096;BME280;17749;51.962;8.560;2023-05-10T17:40:58;99737.84;;;14.23;100.00
31096;BME280;17749;51.962;8.560;2023-05-10T17:43:25;99737.16;;;14.19;100.00
31096;BME280;17749;51.962;8.560;2023-05-10T17:45:52;99736.28;;;14.19;100.00
31096;BME280;17749;51.962;8.560;2023-05-10T17:48:19;99738.00;;;14.20;100.00
31096;BME280;17749;51.962;8.560;2023-05-10T17:50:48;99742.63;;;14.18;100.00
31096;BME280;17749;51.962;8.560;2023-05-10T17:53:16;99745.47;;;14.15;100.00
31096;BME280;17749;51.962;8.560;2023-05-10T17:55:43;99742.03;;;14.13;100.00
31096;BME280;17749;51.962;8.560;2023-05-10T17:58:10;99749.66;;;14.05;100.00
31096;BME280;17749;51.962;8.560;2023-05-10T18:00:38;99750.00;;;13.98;100.00
31096;BME280;17749;51.962;8.560;2023-05-10T18:03:05;99757.28;;;13.96;100.00
31096;BME280;17749;51.962;8.560;2023-05-10T18:05:35;99760.91;;;13.95;100.00